Baraka — ZGAE5 — position and weather

sailwx.info

Track history (hours):
 
Tides and Currents Weather Stations Pressure Air Temp Water Temp Dewpoint Dewpoint Depression Visibility Wind Speed Wind Dir Waves Ship Positions

Baraka

Last reported at 2015-Aug-29 12:31 UTC. Time now 2015-Aug-29 12:40 UTC.
Position N 44°25' E 008°50'.

Length 58 m; draft 3.3 m.

Type: Other ship. MMSI: 319015300.

Date/timePositionNaut miles runAvg speedWind from/ knotsBaromVisibWave heightAir tempDewpointWater temp
2015-Aug-29 12:31N 44°25' E 008°50'0 0.0
2015-Aug-29 11:31N 44°25' E 008°50'2 1.9
2015-Aug-29 10:33N 44°24' E 008°48'7 6.6
2015-Aug-29 09:33N 44°20' E 008°54'1111.3
2015-Aug-29 08:33N 44°16' E 009°10'4 0.2
2015-Aug-28 09:12N 44°19' E 009°13'0 0.0
2015-Aug-28 08:21N 44°19' E 009°13'4 0.2
2015-Aug-27 14:32N 44°15' E 009°11'1313.2
2015-Aug-27 13:33N 44°09' E 008°55'1413.6
2015-Aug-27 12:33N 44°03' E 008°39'1813.0
2015-Aug-27 11:10N 43°54' E 008°16'912.7
2015-Aug-27 10:25N 43°50' E 008°05'1112.7
2015-Aug-27 09:33N 43°46' E 007°50'1812.9
2015-Aug-27 08:07N 43°42' E 007°25'4 5.9
2015-Aug-27 07:31N 43°42' E 007°21'0 0.0
2015-Aug-27 06:33N 43°42' E 007°21'0 0.0
2015-Aug-27 05:33N 43°42' E 007°21'0 0.0
2015-Aug-27 04:05N 43°42' E 007°21'0 0.0
2015-Aug-27 03:33N 43°42' E 007°21'0 0.0
2015-Aug-27 02:33N 43°42' E 007°21'0 0.0
2015-Aug-27 01:24N 43°42' E 007°21'0 0.0
2015-Aug-27 00:33N 43°42' E 007°21'0 0.0
2015-Aug-26 23:33N 43°42' E 007°21'0 0.0
2015-Aug-26 22:29N 43°42' E 007°21'0 0.0
2015-Aug-26 21:33N 43°42' E 007°21'0 0.0
2015-Aug-26 20:33N 43°42' E 007°21'0 0.0
2015-Aug-26 19:20N 43°42' E 007°21'0 0.0
2015-Aug-26 18:33N 43°42' E 007°21'0 0.0
2015-Aug-26 17:33N 43°42' E 007°21'0 0.0
2015-Aug-26 16:30N 43°42' E 007°21'0 0.0
2015-Aug-26 15:29N 43°42' E 007°21'0 0.0
2015-Aug-26 14:21N 43°42' E 007°21'0 0.0
2015-Aug-26 13:33N 43°42' E 007°21'0 0.0
2015-Aug-26 12:33N 43°42' E 007°20'6 6.4
2015-Aug-26 11:33N 43°37' E 007°15'5 5.3
2015-Aug-26 10:33N 43°35' E 007°08'0 0.0
2015-Aug-26 09:33N 43°35' E 007°08'0 0.0
2015-Aug-26 08:21N 43°35' E 007°08'0 0.0
2015-Aug-26 07:33N 43°35' E 007°08'0 0.0
2015-Aug-26 06:33N 43°35' E 007°08'0 0.0
2015-Aug-26 05:33N 43°35' E 007°08'0 0.0
2015-Aug-26 04:33N 43°35' E 007°08'0 0.0
2015-Aug-26 03:33N 43°35' E 007°08'0 0.0
2015-Aug-26 02:33N 43°35' E 007°08'0 0.0
2015-Aug-26 01:33N 43°35' E 007°08'0 0.0
2015-Aug-26 00:33N 43°35' E 007°08'0 0.0
2015-Aug-25 23:33N 43°35' E 007°08'0 0.0
2015-Aug-25 22:33N 43°35' E 007°08'0 0.0
2015-Aug-25 21:33N 43°35' E 007°08'0 0.0
2015-Aug-25 20:33N 43°35' E 007°08'0 0.0
2015-Aug-25 19:33N 43°35' E 007°08'0 0.0
2015-Aug-25 18:33N 43°35' E 007°08'0 0.0
2015-Aug-25 17:33N 43°35' E 007°08'1 0.6
2015-Aug-25 16:33N 43°35' E 007°09'5 2.4
2015-Aug-25 14:33N 43°31' E 007°04'0 0.0
2015-Aug-25 13:33N 43°31' E 007°04'0 0.0
2015-Aug-25 12:32N 43°31' E 007°04'0 0.1
2015-Aug-25 11:32N 43°31' E 007°04'4 3.8
2015-Aug-25 10:33N 43°33' E 007°09'1211.7
2015-Aug-25 09:31N 43°41' E 007°21'1 0.4
2015-Aug-25 06:28N 43°42' E 007°20'0 0.0
2015-Aug-25 05:04N 43°42' E 007°20'0 0.0
2015-Aug-25 04:22N 43°42' E 007°20'0 0.0
2015-Aug-25 03:16N 43°42' E 007°20'0 0.0
2015-Aug-25 02:16N 43°42' E 007°20'0 0.0
2015-Aug-25 01:28N 43°42' E 007°20'0 0.0
2015-Aug-25 00:22N 43°42' E 007°20'0 0.0
2015-Aug-24 21:16N 43°42' E 007°20'0 0.0
2015-Aug-24 19:16N 43°42' E 007°20'0 0.0
2015-Aug-24 11:16N 43°42' E 007°20'4 0.2
2015-Aug-23 16:21N 43°38' E 007°17'7 8.9
2015-Aug-23 15:33N 43°35' E 007°08'0 0.0
2015-Aug-23 14:31N 43°35' E 007°08'0 0.0
2015-Aug-23 13:31N 43°35' E 007°08'0 0.0
2015-Aug-23 12:31N 43°35' E 007°08'0 0.0
2015-Aug-23 11:31N 43°35' E 007°08'0 0.0
2015-Aug-23 10:31N 43°35' E 007°08'0 0.0
2015-Aug-23 09:25N 43°35' E 007°08'1 1.3
2015-Aug-23 08:34N 43°34' E 007°09'10 9.6
2015-Aug-23 07:33N 43°27' E 007°00'1212.0
2015-Aug-23 06:33N 43°21' E 006°46'8 7.5
2015-Aug-23 05:30N 43°16' E 006°37'0 0.0
2015-Aug-23 04:24N 43°16' E 006°37'0 0.0
2015-Aug-23 03:24N 43°16' E 006°37'0 0.0
2015-Aug-23 02:33N 43°16' E 006°37'0 0.0
2015-Aug-23 01:30N 43°16' E 006°37'0 0.0
2015-Aug-23 00:33N 43°16' E 006°37'0 0.0
2015-Aug-22 23:33N 43°16' E 006°37'0 0.0
2015-Aug-22 22:24N 43°16' E 006°37'0 0.0
2015-Aug-22 21:30N 43°16' E 006°37'0 0.0
2015-Aug-22 20:31N 43°16' E 006°37'0 0.0
2015-Aug-22 19:30N 43°16' E 006°37'0 0.0
2015-Aug-22 18:30N 43°16' E 006°37'0 0.0
2015-Aug-22 17:33N 43°16' E 006°37'0 0.0
2015-Aug-22 16:34N 43°16' E 006°37'0 0.0
2015-Aug-22 15:33N 43°16' E 006°37'0 0.0
2015-Aug-22 14:34N 43°16' E 006°37'0 0.0
2015-Aug-22 13:33N 43°16' E 006°37'1 1.0
2015-Aug-22 12:34N 43°17' E 006°39'3 3.3
2015-Aug-22 11:30N 43°14' E 006°40'0 0.0
2015-Aug-22 10:30N 43°14' E 006°40'0 0.0
2015-Aug-22 09:24N 43°14' E 006°40'8 8.6
2015-Aug-22 08:31N 43°18' E 006°49'1313.9
2015-Aug-22 07:33N 43°27' E 007°02'1313.4
2015-Aug-22 06:33N 43°36' E 007°17'7 2.1
2015-Aug-22 03:16N 43°42' E 007°20'0 0.0
2015-Aug-21 16:10N 43°42' E 007°20'0 0.0
2015-Aug-21 12:28N 43°42' E 007°20'0 0.0
2015-Aug-20 14:28N 43°42' E 007°20'0 0.0
2015-Aug-20 13:04N 43°42' E 007°20'0 0.0
2015-Aug-20 12:22N 43°42' E 007°20'0 0.0
2015-Aug-20 07:28N 43°42' E 007°20'0 0.1
2015-Aug-20 06:27N 43°42' E 007°20'5310.8
2015-Aug-20 01:32N 44°05' E 008°26'1212.5
2015-Aug-20 00:33N 44°14' E 008°38'1211.8
2015-Aug-19 23:33N 44°18' E 008°53'1212.0
2015-Aug-19 22:33N 44°16' E 009°10'  
Track history (hours):
 
Tides and Currents Weather Stations Pressure Air Temp Water Temp Dewpoint Dewpoint Depression Visibility Wind Speed Wind Dir Waves Ship Positions

Baraka

Last reported at 2015-Aug-29 12:31 UTC. Time now 2015-Aug-29 12:40 UTC.
Position N 44°25' E 008°50'.

Length 58 m; draft 3.3 m.

Type: Other ship. MMSI: 319015300.

Date/timePositionNaut miles runAvg speedWind from/ knotsBaromVisibWave heightAir tempDewpointWater temp
2015-Aug-29 12:31N 44°25' E 008°50'0 0.0
2015-Aug-29 11:31N 44°25' E 008°50'2 1.9
2015-Aug-29 10:33N 44°24' E 008°48'7 6.6
2015-Aug-29 09:33N 44°20' E 008°54'1111.3
2015-Aug-29 08:33N 44°16' E 009°10'4 0.2
2015-Aug-28 09:12N 44°19' E 009°13'0 0.0
2015-Aug-28 08:21N 44°19' E 009°13'4 0.2
2015-Aug-27 14:32N 44°15' E 009°11'1313.2
2015-Aug-27 13:33N 44°09' E 008°55'1413.6
2015-Aug-27 12:33N 44°03' E 008°39'1813.0
2015-Aug-27 11:10N 43°54' E 008°16'912.7
2015-Aug-27 10:25N 43°50' E 008°05'1112.7
2015-Aug-27 09:33N 43°46' E 007°50'1812.9
2015-Aug-27 08:07N 43°42' E 007°25'4 5.9
2015-Aug-27 07:31N 43°42' E 007°21'0 0.0
2015-Aug-27 06:33N 43°42' E 007°21'0 0.0
2015-Aug-27 05:33N 43°42' E 007°21'0 0.0
2015-Aug-27 04:05N 43°42' E 007°21'0 0.0
2015-Aug-27 03:33N 43°42' E 007°21'0 0.0
2015-Aug-27 02:33N 43°42' E 007°21'0 0.0
2015-Aug-27 01:24N 43°42' E 007°21'0 0.0
2015-Aug-27 00:33N 43°42' E 007°21'0 0.0
2015-Aug-26 23:33N 43°42' E 007°21'0 0.0
2015-Aug-26 22:29N 43°42' E 007°21'0 0.0
2015-Aug-26 21:33N 43°42' E 007°21'0 0.0
2015-Aug-26 20:33N 43°42' E 007°21'0 0.0
2015-Aug-26 19:20N 43°42' E 007°21'0 0.0
2015-Aug-26 18:33N 43°42' E 007°21'0 0.0
2015-Aug-26 17:33N 43°42' E 007°21'0 0.0
2015-Aug-26 16:30N 43°42' E 007°21'0 0.0
2015-Aug-26 15:29N 43°42' E 007°21'0 0.0
2015-Aug-26 14:21N 43°42' E 007°21'0 0.0
2015-Aug-26 13:33N 43°42' E 007°21'0 0.0
2015-Aug-26 12:33N 43°42' E 007°20'6 6.4
2015-Aug-26 11:33N 43°37' E 007°15'5 5.3
2015-Aug-26 10:33N 43°35' E 007°08'0 0.0
2015-Aug-26 09:33N 43°35' E 007°08'0 0.0
2015-Aug-26 08:21N 43°35' E 007°08'0 0.0
2015-Aug-26 07:33N 43°35' E 007°08'0 0.0
2015-Aug-26 06:33N 43°35' E 007°08'0 0.0
2015-Aug-26 05:33N 43°35' E 007°08'0 0.0
2015-Aug-26 04:33N 43°35' E 007°08'0 0.0
2015-Aug-26 03:33N 43°35' E 007°08'0 0.0
2015-Aug-26 02:33N 43°35' E 007°08'0 0.0
2015-Aug-26 01:33N 43°35' E 007°08'0 0.0
2015-Aug-26 00:33N 43°35' E 007°08'0 0.0
2015-Aug-25 23:33N 43°35' E 007°08'0 0.0
2015-Aug-25 22:33N 43°35' E 007°08'0 0.0
2015-Aug-25 21:33N 43°35' E 007°08'0 0.0
2015-Aug-25 20:33N 43°35' E 007°08'0 0.0
2015-Aug-25 19:33N 43°35' E 007°08'0 0.0
2015-Aug-25 18:33N 43°35' E 007°08'0 0.0
2015-Aug-25 17:33N 43°35' E 007°08'1 0.6
2015-Aug-25 16:33N 43°35' E 007°09'5 2.4
2015-Aug-25 14:33N 43°31' E 007°04'0 0.0
2015-Aug-25 13:33N 43°31' E 007°04'0 0.0
2015-Aug-25 12:32N 43°31' E 007°04'0 0.1
2015-Aug-25 11:32N 43°31' E 007°04'4 3.8
2015-Aug-25 10:33N 43°33' E 007°09'1211.7
2015-Aug-25 09:31N 43°41' E 007°21'1 0.4
2015-Aug-25 06:28N 43°42' E 007°20'0 0.0
2015-Aug-25 05:04N 43°42' E 007°20'0 0.0
2015-Aug-25 04:22N 43°42' E 007°20'0 0.0
2015-Aug-25 03:16N 43°42' E 007°20'0 0.0
2015-Aug-25 02:16N 43°42' E 007°20'0 0.0
2015-Aug-25 01:28N 43°42' E 007°20'0 0.0
2015-Aug-25 00:22N 43°42' E 007°20'0 0.0
2015-Aug-24 21:16N 43°42' E 007°20'0 0.0
2015-Aug-24 19:16N 43°42' E 007°20'0 0.0
2015-Aug-24 11:16N 43°42' E 007°20'4 0.2
2015-Aug-23 16:21N 43°38' E 007°17'7 8.9
2015-Aug-23 15:33N 43°35' E 007°08'0 0.0
2015-Aug-23 14:31N 43°35' E 007°08'0 0.0
2015-Aug-23 13:31N 43°35' E 007°08'0 0.0
2015-Aug-23 12:31N 43°35' E 007°08'0 0.0
2015-Aug-23 11:31N 43°35' E 007°08'0 0.0
2015-Aug-23 10:31N 43°35' E 007°08'0 0.0
2015-Aug-23 09:25N 43°35' E 007°08'1 1.3
2015-Aug-23 08:34N 43°34' E 007°09'10 9.6
2015-Aug-23 07:33N 43°27' E 007°00'1212.0
2015-Aug-23 06:33N 43°21' E 006°46'8 7.5
2015-Aug-23 05:30N 43°16' E 006°37'0 0.0
2015-Aug-23 04:24N 43°16' E 006°37'0 0.0
2015-Aug-23 03:24N 43°16' E 006°37'0 0.0
2015-Aug-23 02:33N 43°16' E 006°37'0 0.0
2015-Aug-23 01:30N 43°16' E 006°37'0 0.0
2015-Aug-23 00:33N 43°16' E 006°37'0 0.0
2015-Aug-22 23:33N 43°16' E 006°37'0 0.0
2015-Aug-22 22:24N 43°16' E 006°37'0 0.0
2015-Aug-22 21:30N 43°16' E 006°37'0 0.0
2015-Aug-22 20:31N 43°16' E 006°37'0 0.0
2015-Aug-22 19:30N 43°16' E 006°37'0 0.0
2015-Aug-22 18:30N 43°16' E 006°37'0 0.0
2015-Aug-22 17:33N 43°16' E 006°37'0 0.0
2015-Aug-22 16:34N 43°16' E 006°37'0 0.0
2015-Aug-22 15:33N 43°16' E 006°37'0 0.0
2015-Aug-22 14:34N 43°16' E 006°37'0 0.0
2015-Aug-22 13:33N 43°16' E 006°37'1 1.0
2015-Aug-22 12:34N 43°17' E 006°39'3 3.3
2015-Aug-22 11:30N 43°14' E 006°40'0 0.0
2015-Aug-22 10:30N 43°14' E 006°40'0 0.0
2015-Aug-22 09:24N 43°14' E 006°40'8 8.6
2015-Aug-22 08:31N 43°18' E 006°49'1313.9
2015-Aug-22 07:33N 43°27' E 007°02'1313.4
2015-Aug-22 06:33N 43°36' E 007°17'7 2.1
2015-Aug-22 03:16N 43°42' E 007°20'0 0.0
2015-Aug-21 16:10N 43°42' E 007°20'0 0.0
2015-Aug-21 12:28N 43°42' E 007°20'0 0.0
2015-Aug-20 14:28N 43°42' E 007°20'0 0.0
2015-Aug-20 13:04N 43°42' E 007°20'0 0.0
2015-Aug-20 12:22N 43°42' E 007°20'0 0.0
2015-Aug-20 07:28N 43°42' E 007°20'0 0.1
2015-Aug-20 06:27N 43°42' E 007°20'5310.8
2015-Aug-20 01:32N 44°05' E 008°26'1212.5
2015-Aug-20 00:33N 44°14' E 008°38'1211.8
2015-Aug-19 23:33N 44°18' E 008°53'1212.0
2015-Aug-19 22:33N 44°16' E 009°10'  

Dump ship's entire track history